sensor_id;sensor_type;location;lat;lon;timestamp;temperature;humidity
46037;DHT22;31769;49.304;8.428;2022-09-30T00:02:02;10.20;99.90
46037;DHT22;31769;49.304;8.428;2022-09-30T00:05:03;10.20;99.90
46037;DHT22;31769;49.304;8.428;2022-09-30T00:08:05;10.10;99.90
46037;DHT22;31769;49.304;8.428;2022-09-30T00:11:13;10.00;99.90
46037;DHT22;31769;49.304;8.428;2022-09-30T00:14:18;10.00;99.90
46037;DHT22;31769;49.304;8.428;2022-09-30T00:17:19;10.00;99.90
46037;DHT22;31769;49.304;8.428;2022-09-30T00:20:20;10.00;99.90
46037;DHT22;31769;49.304;8.428;2022-09-30T00:23:22;10.00;99.90
46037;DHT22;31769;49.304;8.428;2022-09-30T00:26:23;10.00;99.90
46037;DHT22;31769;49.304;8.428;2022-09-30T00:29:24;10.00;99.90
46037;DHT22;31769;49.304;8.428;2022-09-30T00:32:25;10.00;99.90
46037;DHT22;31769;49.304;8.428;2022-09-30T00:35:25;10.00;99.90
46037;DHT22;31769;49.304;8.428;2022-09-30T00:38:26;10.00;99.90
46037;DHT22;31769;49.304;8.428;2022-09-30T00:41:27;10.00;99.90
46037;DHT22;31769;49.304;8.428;2022-09-30T00:47:59;10.00;99.90
46037;DHT22;31769;49.304;8.428;2022-09-30T00:51:02;10.00;99.90
46037;DHT22;31769;49.304;8.428;2022-09-30T00:54:17;10.10;99.90
46037;DHT22;31769;49.304;8.428;2022-09-30T00:57:18;10.10;99.90
46037;DHT22;31769;49.304;8.428;2022-09-30T01:00:19;10.10;99.90
46037;DHT22;31769;49.304;8.428;2022-09-30T01:03:20;10.20;99.90
46037;DHT22;31769;49.304;8.428;2022-09-30T01:06:23;10.20;99.90
46037;DHT22;31769;49.304;8.428;2022-09-30T01:09:24;10.10;99.90
46037;DHT22;31769;49.304;8.428;2022-09-30T01:12:25;10.10;99.90
46037;DHT22;31769;49.304;8.428;2022-09-30T01:15:38;10.00;99.90
46037;DHT22;31769;49.304;8.428;2022-09-30T01:22:22;10.10;99.90
46037;DHT22;31769;49.304;8.428;2022-09-30T01:28:53;10.10;99.90
46037;DHT22;31769;49.304;8.428;2022-09-30T01:32:23;10.10;99.90
46037;DHT22;31769;49.304;8.428;2022-09-30T01:41:58;9.90;99.90
46037;DHT22;31769;49.304;8.428;2022-09-30T01:48:30;9.90;99.90
46037;DHT22;31769;49.304;8.428;2022-09-30T01:58:28;9.80;99.90
46037;DHT22;31769;49.304;8.428;2022-09-30T02:01:49;9.70;99.90
46037;DHT22;31769;49.304;8.428;2022-09-30T02:05:22;9.70;99.90
46037;DHT22;31769;49.304;8.428;2022-09-30T02:08:38;9.70;99.90
46037;DHT22;31769;49.304;8.428;2022-09-30T02:11:41;9.70;99.90
46037;DHT22;31769;49.304;8.428;2022-09-30T02:14:48;9.60;99.90
46037;DHT22;31769;49.304;8.428;2022-09-30T02:17:58;9.60;99.90
46037;DHT22;31769;49.304;8.428;2022-09-30T02:21:03;9.60;99.90
46037;DHT22;31769;49.304;8.428;2022-09-30T02:24:09;9.60;99.90
46037;DHT22;31769;49.304;8.428;2022-09-30T02:27:23;9.70;99.90
46037;DHT22;31769;49.304;8.428;2022-09-30T02:30:28;9.70;99.90
46037;DHT22;31769;49.304;8.428;2022-09-30T02:37:07;9.80;99.90
46037;DHT22;31769;49.304;8.428;2022-09-30T02:40:27;9.80;99.90
46037;DHT22;31769;49.304;8.428;2022-09-30T02:43:29;9.90;99.90
46037;DHT22;31769;49.304;8.428;2022-09-30T02:46:48;9.90;99.90
46037;DHT22;31769;49.304;8.428;2022-09-30T02:56:58;10.00;99.90
46037;DHT22;31769;49.304;8.428;2022-09-30T03:00:03;10.00;99.90
46037;DHT22;31769;49.304;8.428;2022-09-30T03:03:08;10.00;99.90
46037;DHT22;31769;49.304;8.428;2022-09-30T03:06:11;10.10;99.90
46037;DHT22;31769;49.304;8.428;2022-09-30T03:09:12;10.00;99.90
46037;DHT22;31769;49.304;8.428;2022-09-30T03:16:00;10.00;99.90
46037;DHT22;31769;49.304;8.428;2022-09-30T03:26:18;9.80;99.90
46037;DHT22;31769;49.304;8.428;2022-09-30T03:29:40;9.60;99.90
46037;DHT22;31769;49.304;8.428;2022-09-30T03:33:08;9.60;99.90
46037;DHT22;31769;49.304;8.428;2022-09-30T03:39:54;9.50;99.90
46037;DHT22;31769;49.304;8.428;2022-09-30T03:43:04;9.60;99.90
46037;DHT22;31769;49.304;8.428;2022-09-30T03:46:32;9.50;99.90
46037;DHT22;31769;49.304;8.428;2022-09-30T03:49:39;9.50;99.90
46037;DHT22;31769;49.304;8.428;2022-09-30T03:52:42;9.40;99.90
46037;DHT22;31769;49.304;8.428;2022-09-30T03:55:48;9.40;99.90
46037;DHT22;31769;49.304;8.428;2022-09-30T03:58:49;9.50;99.90
46037;DHT22;31769;49.304;8.428;2022-09-30T04:01:50;9.40;99.90
46037;DHT22;31769;49.304;8.428;2022-09-30T04:04:51;9.30;99.90
46037;DHT22;31769;49.304;8.428;2022-09-30T04:07:52;9.30;99.90
46037;DHT22;31769;49.304;8.428;2022-09-30T04:10:52;9.10;99.90
46037;DHT22;31769;49.304;8.428;2022-09-30T04:13:53;9.00;99.90
46037;DHT22;31769;49.304;8.428;2022-09-30T04:16:54;9.10;99.90
46037;DHT22;31769;49.304;8.428;2022-09-30T04:19:54;9.10;99.90
46037;DHT22;31769;49.304;8.428;2022-09-30T04:22:59;9.20;99.90
46037;DHT22;31769;49.304;8.428;2022-09-30T04:25:59;9.20;99.90
46037;DHT22;31769;49.304;8.428;2022-09-30T04:29:01;9.20;99.90
46037;DHT22;31769;49.304;8.428;2022-09-30T04:32:02;9.10;99.90
46037;DHT22;31769;49.304;8.428;2022-09-30T04:35:03;9.20;99.90
46037;DHT22;31769;49.304;8.428;2022-09-30T04:38:04;9.20;99.90
46037;DHT22;31769;49.304;8.428;2022-09-30T04:41:07;9.20;99.90
46037;DHT22;31769;49.304;8.428;2022-09-30T04:44:09;9.00;99.90
46037;DHT22;31769;49.304;8.428;2022-09-30T04:47:09;8.80;99.90
46037;DHT22;31769;49.304;8.428;2022-09-30T04:50:11;8.60;99.90
46037;DHT22;31769;49.304;8.428;2022-09-30T04:53:12;8.50;99.90
46037;DHT22;31769;49.304;8.428;2022-09-30T04:56:16;8.70;99.90
46037;DHT22;31769;49.304;8.428;2022-09-30T04:59:17;8.80;99.90
46037;DHT22;31769;49.304;8.428;2022-09-30T05:02:18;8.80;99.90
46037;DHT22;31769;49.304;8.428;2022-09-30T05:05:19;8.90;99.90
46037;DHT22;31769;49.304;8.428;2022-09-30T05:08:19;8.90;99.90
46037;DHT22;31769;49.304;8.428;2022-09-30T05:11:22;8.90;99.90
46037;DHT22;31769;49.304;8.428;2022-09-30T05:14:23;8.90;99.90
46037;DHT22;31769;49.304;8.428;2022-09-30T05:17:23;9.00;99.90
46037;DHT22;31769;49.304;8.428;2022-09-30T05:20:24;9.00;99.90
46037;DHT22;31769;49.304;8.428;2022-09-30T05:23:27;9.00;99.90
46037;DHT22;31769;49.304;8.428;2022-09-30T05:26:29;9.00;99.90
46037;DHT22;31769;49.304;8.428;2022-09-30T05:29:30;9.00;99.90
46037;DHT22;31769;49.304;8.428;2022-09-30T05:32:30;9.00;99.90
46037;DHT22;31769;49.304;8.428;2022-09-30T05:35:31;9.00;99.90
46037;DHT22;31769;49.304;8.428;2022-09-30T05:38:32;9.00;99.90
46037;DHT22;31769;49.304;8.428;2022-09-30T05:41:34;9.10;99.90
46037;DHT22;31769;49.304;8.428;2022-09-30T05:44:34;9.10;99.90
46037;DHT22;31769;49.304;8.428;2022-09-30T05:47:35;9.10;99.90
46037;DHT22;31769;49.304;8.428;2022-09-30T05:50:36;9.10;99.90
46037;DHT22;31769;49.304;8.428;2022-09-30T05:53:37;9.20;99.90
46037;DHT22;31769;49.304;8.428;2022-09-30T05:56:38;9.30;99.90
46037;DHT22;31769;49.304;8.428;2022-09-30T05:59:39;9.30;99.90
46037;DHT22;31769;49.304;8.428;2022-09-30T06:02:40;9.30;99.90
46037;DHT22;31769;49.304;8.428;2022-09-30T06:05:40;9.30;99.90
46037;DHT22;31769;49.304;8.428;2022-09-30T06:08:41;9.30;99.90
46037;DHT22;31769;49.304;8.428;2022-09-30T06:11:43;9.30;99.90
46037;DHT22;31769;49.304;8.428;2022-09-30T06:14:43;9.40;99.90
46037;DHT22;31769;49.304;8.428;2022-09-30T06:17:44;9.50;99.90
46037;DHT22;31769;49.304;8.428;2022-09-30T06:20:46;9.50;99.90
46037;DHT22;31769;49.304;8.428;2022-09-30T06:23:47;9.60;99.90
46037;DHT22;31769;49.304;8.428;2022-09-30T06:26:47;9.70;99.90
46037;DHT22;31769;49.304;8.428;2022-09-30T06:29:48;9.80;99.90
46037;DHT22;31769;49.304;8.428;2022-09-30T06:32:49;9.90;99.90
46037;DHT22;31769;49.304;8.428;2022-09-30T06:35:51;10.00;99.90
46037;DHT22;31769;49.304;8.428;2022-09-30T06:38:51;10.10;99.90
46037;DHT22;31769;49.304;8.428;2022-09-30T06:41:53;10.10;99.90
46037;DHT22;31769;49.304;8.428;2022-09-30T06:44:58;10.20;99.90
46037;DHT22;31769;49.304;8.428;2022-09-30T06:48:00;10.20;99.90
46037;DHT22;31769;49.304;8.428;2022-09-30T06:51:01;10.30;99.90
46037;DHT22;31769;49.304;8.428;2022-09-30T06:54:02;10.20;99.90
46037;DHT22;31769;49.304;8.428;2022-09-30T06:57:03;10.30;99.90
46037;DHT22;31769;49.304;8.428;2022-09-30T07:00:04;10.30;99.90
46037;DHT22;31769;49.304;8.428;2022-09-30T07:03:05;10.30;99.90
46037;DHT22;31769;49.304;8.428;2022-09-30T07:06:12;10.30;99.90
46037;DHT22;31769;49.304;8.428;2022-09-30T07:09:13;10.50;99.90
46037;DHT22;31769;49.304;8.428;2022-09-30T07:12:14;10.60;99.90
46037;DHT22;31769;49.304;8.428;2022-09-30T07:15:14;10.80;99.90
46037;DHT22;31769;49.304;8.428;2022-09-30T07:18:15;11.00;99.90
46037;DHT22;31769;49.304;8.428;2022-09-30T07:21:19;11.10;99.90
46037;DHT22;31769;49.304;8.428;2022-09-30T07:24:20;11.30;99.90
46037;DHT22;31769;49.304;8.428;2022-09-30T07:27:21;11.40;99.90
46037;DHT22;31769;49.304;8.428;2022-09-30T07:30:22;11.70;99.90
46037;DHT22;31769;49.304;8.428;2022-09-30T07:33:24;11.80;99.90
46037;DHT22;31769;49.304;8.428;2022-09-30T07:36:26;11.90;99.90
46037;DHT22;31769;49.304;8.428;2022-09-30T07:39:27;11.90;99.90
46037;DHT22;31769;49.304;8.428;2022-09-30T07:42:27;11.90;99.90
46037;DHT22;31769;49.304;8.428;2022-09-30T07:45:30;11.90;99.90
46037;DHT22;31769;49.304;8.428;2022-09-30T07:48:31;11.90;99.90
46037;DHT22;31769;49.304;8.428;2022-09-30T07:51:53;12.10;99.90
46037;DHT22;31769;49.304;8.428;2022-09-30T07:54:55;12.30;99.90
46037;DHT22;31769;49.304;8.428;2022-09-30T07:57:55;12.40;99.90
46037;DHT22;31769;49.304;8.428;2022-09-30T08:00:56;12.70;99.90
46037;DHT22;31769;49.304;8.428;2022-09-30T08:04:05;12.80;99.90
46037;DHT22;31769;49.304;8.428;2022-09-30T08:07:06;13.00;99.90
46037;DHT22;31769;49.304;8.428;2022-09-30T08:10:07;13.20;99.90
46037;DHT22;31769;49.304;8.428;2022-09-30T08:13:08;13.20;99.90
46037;DHT22;31769;49.304;8.428;2022-09-30T08:16:09;13.30;99.90
46037;DHT22;31769;49.304;8.428;2022-09-30T08:19:21;13.30;99.90
46037;DHT22;31769;49.304;8.428;2022-09-30T08:22:22;13.20;99.90
46037;DHT22;31769;49.304;8.428;2022-09-30T08:25:23;13.20;99.90
46037;DHT22;31769;49.304;8.428;2022-09-30T08:28:24;13.30;99.90
46037;DHT22;31769;49.304;8.428;2022-09-30T08:31:25;13.10;99.90
46037;DHT22;31769;49.304;8.428;2022-09-30T08:34:27;13.30;99.90
46037;DHT22;31769;49.304;8.428;2022-09-30T08:37:33;13.50;99.90
46037;DHT22;31769;49.304;8.428;2022-09-30T08:40:42;13.70;99.90
46037;DHT22;31769;49.304;8.428;2022-09-30T08:50:52;14.00;99.90
46037;DHT22;31769;49.304;8.428;2022-09-30T08:53:55;14.00;99.90
46037;DHT22;31769;49.304;8.428;2022-09-30T08:56:58;14.30;99.90
46037;DHT22;31769;49.304;8.428;2022-09-30T09:00:01;14.40;99.90
46037;DHT22;31769;49.304;8.428;2022-09-30T09:03:10;14.50;99.90
46037;DHT22;31769;49.304;8.428;2022-09-30T09:09:40;14.70;99.90
46037;DHT22;31769;49.304;8.428;2022-09-30T09:12:55;14.70;99.90
46037;DHT22;31769;49.304;8.428;2022-09-30T09:16:32;14.70;99.90
46037;DHT22;31769;49.304;8.428;2022-09-30T09:19:34;14.70;99.90
46037;DHT22;31769;49.304;8.428;2022-09-30T09:22:36;14.80;99.90
46037;DHT22;31769;49.304;8.428;2022-09-30T09:25:37;15.00;99.90
46037;DHT22;31769;49.304;8.428;2022-09-30T09:31:53;15.30;99.90
46037;DHT22;31769;49.304;8.428;2022-09-30T09:35:03;15.30;99.90
46037;DHT22;31769;49.304;8.428;2022-09-30T09:38:21;15.30;99.90
46037;DHT22;31769;49.304;8.428;2022-09-30T09:45:20;15.00;99.90
46037;DHT22;31769;49.304;8.428;2022-09-30T09:48:22;14.90;99.90
46037;DHT22;31769;49.304;8.428;2022-09-30T09:54:27;14.90;99.90
46037;DHT22;31769;49.304;8.428;2022-09-30T09:57:30;14.90;99.90
46037;DHT22;31769;49.304;8.428;2022-09-30T10:00:31;15.00;99.90
46037;DHT22;31769;49.304;8.428;2022-09-30T10:04:26;15.20;99.90
46037;DHT22;31769;49.304;8.428;2022-09-30T10:07:31;15.10;99.90
46037;DHT22;31769;49.304;8.428;2022-09-30T10:10:48;15.20;99.90
46037;DHT22;31769;49.304;8.428;2022-09-30T10:13:57;15.10;99.90
46037;DHT22;31769;49.304;8.428;2022-09-30T10:17:04;15.20;99.90
46037;DHT22;31769;49.304;8.428;2022-09-30T10:23:31;15.80;99.90
46037;DHT22;31769;49.304;8.428;2022-09-30T10:26:43;15.90;99.90
46037;DHT22;31769;49.304;8.428;2022-09-30T10:29:46;15.40;99.90
46037;DHT22;31769;49.304;8.428;2022-09-30T10:32:47;15.10;99.90
46037;DHT22;31769;49.304;8.428;2022-09-30T10:39:07;15.40;99.90
46037;DHT22;31769;49.304;8.428;2022-09-30T10:42:21;15.60;99.90
46037;DHT22;31769;49.304;8.428;2022-09-30T10:45:33;15.50;99.90
46037;DHT22;31769;49.304;8.428;2022-09-30T10:48:37;15.40;99.90
46037;DHT22;31769;49.304;8.428;2022-09-30T10:51:39;15.80;99.90
46037;DHT22;31769;49.304;8.428;2022-09-30T10:57:52;16.30;99.90
46037;DHT22;31769;49.304;8.428;2022-09-30T11:04:26;16.40;99.90
46037;DHT22;31769;49.304;8.428;2022-09-30T11:07:41;15.90;99.90
46037;DHT22;31769;49.304;8.428;2022-09-30T11:14:45;16.50;99.90
46037;DHT22;31769;49.304;8.428;2022-09-30T11:17:57;16.70;99.90
46037;DHT22;31769;49.304;8.428;2022-09-30T11:21:05;17.30;99.90
46037;DHT22;31769;49.304;8.428;2022-09-30T11:24:16;17.70;99.90
46037;DHT22;31769;49.304;8.428;2022-09-30T11:27:43;18.30;99.90
46037;DHT22;31769;49.304;8.428;2022-09-30T11:38:00;19.70;99.90
46037;DHT22;31769;49.304;8.428;2022-09-30T11:44:35;20.80;99.90
46037;DHT22;31769;49.304;8.428;2022-09-30T11:48:23;21.80;99.90
46037;DHT22;31769;49.304;8.428;2022-09-30T11:51:30;22.30;98.80
46037;DHT22;31769;49.304;8.428;2022-09-30T11:54:45;22.60;98.10
46037;DHT22;31769;49.304;8.428;2022-09-30T11:57:57;25.40;93.40
46037;DHT22;31769;49.304;8.428;2022-09-30T12:01:18;29.00;84.50
46037;DHT22;31769;49.304;8.428;2022-09-30T12:04:29;31.30;65.00
46037;DHT22;31769;49.304;8.428;2022-09-30T12:07:46;33.10;58.50
46037;DHT22;31769;49.304;8.428;2022-09-30T12:10:53;33.70;56.40
46037;DHT22;31769;49.304;8.428;2022-09-30T12:14:02;35.40;53.00
46037;DHT22;31769;49.304;8.428;2022-09-30T12:17:10;34.00;49.00
46037;DHT22;31769;49.304;8.428;2022-09-30T12:20:34;32.80;51.60
46037;DHT22;31769;49.304;8.428;2022-09-30T12:23:45;34.20;50.50
46037;DHT22;31769;49.304;8.428;2022-09-30T12:26:47;36.20;48.90
46037;DHT22;31769;49.304;8.428;2022-09-30T12:30:09;35.50;48.10
46037;DHT22;31769;49.304;8.428;2022-09-30T12:33:39;38.60;44.90
46037;DHT22;31769;49.304;8.428;2022-09-30T12:36:53;38.60;43.30
46037;DHT22;31769;49.304;8.428;2022-09-30T12:40:01;38.70;41.90
46037;DHT22;31769;49.304;8.428;2022-09-30T12:43:22;38.20;42.70
46037;DHT22;31769;49.304;8.428;2022-09-30T12:49:49;36.80;42.90
46037;DHT22;31769;49.304;8.428;2022-09-30T12:52:55;38.80;41.40
46037;DHT22;31769;49.304;8.428;2022-09-30T12:56:05;38.60;38.00
46037;DHT22;31769;49.304;8.428;2022-09-30T12:59:07;35.70;39.70
46037;DHT22;31769;49.304;8.428;2022-09-30T13:02:35;33.60;41.10
46037;DHT22;31769;49.304;8.428;2022-09-30T13:05:49;33.10;43.30
46037;DHT22;31769;49.304;8.428;2022-09-30T13:12:24;37.20;39.70
46037;DHT22;31769;49.304;8.428;2022-09-30T13:21:29;40.90;37.80
46037;DHT22;31769;49.304;8.428;2022-09-30T13:31:21;41.00;36.40
46037;DHT22;31769;49.304;8.428;2022-09-30T13:34:26;42.70;36.00
46037;DHT22;31769;49.304;8.428;2022-09-30T13:37:36;40.00;35.80
46037;DHT22;31769;49.304;8.428;2022-09-30T13:43:57;30.40;44.50
46037;DHT22;31769;49.304;8.428;2022-09-30T13:47:38;30.20;44.90
46037;DHT22;31769;49.304;8.428;2022-09-30T13:50:48;30.10;43.80
46037;DHT22;31769;49.304;8.428;2022-09-30T13:53:54;31.60;44.00
46037;DHT22;31769;49.304;8.428;2022-09-30T13:56:56;36.40;39.80
46037;DHT22;31769;49.304;8.428;2022-09-30T14:00:13;34.90;39.50
46037;DHT22;31769;49.304;8.428;2022-09-30T14:19:54;37.80;38.40
46037;DHT22;31769;49.304;8.428;2022-09-30T14:22:58;36.10;39.40
46037;DHT22;31769;49.304;8.428;2022-09-30T14:29:44;36.80;39.10
46037;DHT22;31769;49.304;8.428;2022-09-30T14:32:53;35.50;39.70
46037;DHT22;31769;49.304;8.428;2022-09-30T14:35:55;33.90;41.20
46037;DHT22;31769;49.304;8.428;2022-09-30T14:38:59;35.00;40.60
46037;DHT22;31769;49.304;8.428;2022-09-30T14:42:00;31.70;42.60
46037;DHT22;31769;49.304;8.428;2022-09-30T14:45:03;32.40;43.20
46037;DHT22;31769;49.304;8.428;2022-09-30T14:48:08;34.10;42.20
46037;DHT22;31769;49.304;8.428;2022-09-30T14:51:13;34.40;40.90
46037;DHT22;31769;49.304;8.428;2022-09-30T14:54:22;36.40;39.60
46037;DHT22;31769;49.304;8.428;2022-09-30T14:57:24;36.80;38.90
46037;DHT22;31769;49.304;8.428;2022-09-30T15:00:30;36.60;38.90
46037;DHT22;31769;49.304;8.428;2022-09-30T15:03:38;36.50;38.30
46037;DHT22;31769;49.304;8.428;2022-09-30T15:06:44;32.70;41.80
46037;DHT22;31769;49.304;8.428;2022-09-30T15:09:47;31.00;44.10
46037;DHT22;31769;49.304;8.428;2022-09-30T15:12:50;31.10;43.80
46037;DHT22;31769;49.304;8.428;2022-09-30T15:15:52;31.60;43.30
46037;DHT22;31769;49.304;8.428;2022-09-30T15:18:53;32.20;43.00
46037;DHT22;31769;49.304;8.428;2022-09-30T15:21:56;31.80;43.30
46037;DHT22;31769;49.304;8.428;2022-09-30T15:25:01;30.90;44.40
46037;DHT22;31769;49.304;8.428;2022-09-30T15:28:03;29.10;45.50
46037;DHT22;31769;49.304;8.428;2022-09-30T15:31:05;29.00;45.20
46037;DHT22;31769;49.304;8.428;2022-09-30T15:34:19;31.50;42.80
46037;DHT22;31769;49.304;8.428;2022-09-30T15:37:24;32.80;41.10
46037;DHT22;31769;49.304;8.428;2022-09-30T15:40:25;33.50;40.40
46037;DHT22;31769;49.304;8.428;2022-09-30T15:43:49;32.40;41.90
46037;DHT22;31769;49.304;8.428;2022-09-30T15:47:05;32.80;41.50
46037;DHT22;31769;49.304;8.428;2022-09-30T15:50:37;32.50;42.50
46037;DHT22;31769;49.304;8.428;2022-09-30T15:56:40;30.60;45.10
46037;DHT22;31769;49.304;8.428;2022-09-30T16:00:02;30.60;45.30
46037;DHT22;31769;49.304;8.428;2022-09-30T16:03:23;28.30;48.00
46037;DHT22;31769;49.304;8.428;2022-09-30T16:09:41;29.60;46.10
46037;DHT22;31769;49.304;8.428;2022-09-30T16:12:42;29.80;45.50
46037;DHT22;31769;49.304;8.428;2022-09-30T16:15:48;29.90;45.70
46037;DHT22;31769;49.304;8.428;2022-09-30T16:18:52;28.70;46.30
46037;DHT22;31769;49.304;8.428;2022-09-30T16:21:53;28.10;48.20
46037;DHT22;31769;49.304;8.428;2022-09-30T16:25:00;27.30;49.70
46037;DHT22;31769;49.304;8.428;2022-09-30T16:28:13;27.80;49.90
46037;DHT22;31769;49.304;8.428;2022-09-30T16:31:14;28.50;48.60
46037;DHT22;31769;49.304;8.428;2022-09-30T16:34:26;26.80;51.60
46037;DHT22;31769;49.304;8.428;2022-09-30T16:37:27;27.70;50.90
46037;DHT22;31769;49.304;8.428;2022-09-30T16:40:29;26.90;51.00
46037;DHT22;31769;49.304;8.428;2022-09-30T16:43:30;25.60;53.20
46037;DHT22;31769;49.304;8.428;2022-09-30T16:46:31;24.20;56.90
46037;DHT22;31769;49.304;8.428;2022-09-30T16:49:35;23.30;58.80
46037;DHT22;31769;49.304;8.428;2022-09-30T16:52:36;22.40;61.00
46037;DHT22;31769;49.304;8.428;2022-09-30T16:55:36;21.60;63.50
46037;DHT22;31769;49.304;8.428;2022-09-30T16:58:37;21.50;65.10
46037;DHT22;31769;49.304;8.428;2022-09-30T17:01:38;20.90;67.70
46037;DHT22;31769;49.304;8.428;2022-09-30T17:04:38;19.90;72.00
46037;DHT22;31769;49.304;8.428;2022-09-30T17:07:39;18.70;78.80
46037;DHT22;31769;49.304;8.428;2022-09-30T17:10:45;17.80;88.90
46037;DHT22;31769;49.304;8.428;2022-09-30T17:13:47;17.10;95.90
46037;DHT22;31769;49.304;8.428;2022-09-30T17:16:47;16.70;99.90
46037;DHT22;31769;49.304;8.428;2022-09-30T17:19:48;16.40;99.90
46037;DHT22;31769;49.304;8.428;2022-09-30T17:22:49;16.20;99.90
46037;DHT22;31769;49.304;8.428;2022-09-30T17:25:50;16.10;99.90
46037;DHT22;31769;49.304;8.428;2022-09-30T17:28:51;16.00;99.90
46037;DHT22;31769;49.304;8.428;2022-09-30T17:31:51;15.80;99.90
46037;DHT22;31769;49.304;8.428;2022-09-30T17:34:53;15.60;99.90
46037;DHT22;31769;49.304;8.428;2022-09-30T17:37:54;15.40;99.90
46037;DHT22;31769;49.304;8.428;2022-09-30T17:40:55;15.30;99.90
46037;DHT22;31769;49.304;8.428;2022-09-30T17:44:15;15.10;99.90
46037;DHT22;31769;49.304;8.428;2022-09-30T17:47:16;15.00;99.90
46037;DHT22;31769;49.304;8.428;2022-09-30T17:50:16;15.00;99.90
46037;DHT22;31769;49.304;8.428;2022-09-30T17:53:19;14.80;99.90
46037;DHT22;31769;49.304;8.428;2022-09-30T17:56:23;14.80;99.90
46037;DHT22;31769;49.304;8.428;2022-09-30T17:59:24;14.60;99.90
46037;DHT22;31769;49.304;8.428;2022-09-30T18:02:26;14.60;99.90
46037;DHT22;31769;49.304;8.428;2022-09-30T18:05:26;14.60;99.90
46037;DHT22;31769;49.304;8.428;2022-09-30T18:08:27;14.50;99.90
46037;DHT22;31769;49.304;8.428;2022-09-30T18:11:28;14.40;99.90
46037;DHT22;31769;49.304;8.428;2022-09-30T18:14:30;14.50;99.90
46037;DHT22;31769;49.304;8.428;2022-09-30T18:17:35;14.40;99.90
46037;DHT22;31769;49.304;8.428;2022-09-30T18:20:36;14.20;99.90
46037;DHT22;31769;49.304;8.428;2022-09-30T18:23:41;14.00;99.90
46037;DHT22;31769;49.304;8.428;2022-09-30T18:26:42;13.80;99.90
46037;DHT22;31769;49.304;8.428;2022-09-30T18:29:43;13.50;99.90
46037;DHT22;31769;49.304;8.428;2022-09-30T18:32:49;13.40;99.90
46037;DHT22;31769;49.304;8.428;2022-09-30T18:35:49;13.40;99.90
46037;DHT22;31769;49.304;8.428;2022-09-30T18:38:51;13.30;99.90
46037;DHT22;31769;49.304;8.428;2022-09-30T18:41:52;13.30;99.90
46037;DHT22;31769;49.304;8.428;2022-09-30T18:44:52;13.30;99.90
46037;DHT22;31769;49.304;8.428;2022-09-30T18:47:56;13.30;99.90
46037;DHT22;31769;49.304;8.428;2022-09-30T18:51:03;13.20;99.90
46037;DHT22;31769;49.304;8.428;2022-09-30T18:54:04;13.30;99.90
46037;DHT22;31769;49.304;8.428;2022-09-30T18:57:05;13.20;99.90
46037;DHT22;31769;49.304;8.428;2022-09-30T19:00:07;13.20;99.90
46037;DHT22;31769;49.304;8.428;2022-09-30T19:03:11;13.10;99.90
46037;DHT22;31769;49.304;8.428;2022-09-30T19:06:15;13.00;99.90
46037;DHT22;31769;49.304;8.428;2022-09-30T19:09:16;13.00;99.90
46037;DHT22;31769;49.304;8.428;2022-09-30T19:12:17;12.90;99.90
46037;DHT22;31769;49.304;8.428;2022-09-30T19:15:17;12.80;99.90
46037;DHT22;31769;49.304;8.428;2022-09-30T19:18:18;12.80;99.90
46037;DHT22;31769;49.304;8.428;2022-09-30T19:21:20;12.70;99.90
46037;DHT22;31769;49.304;8.428;2022-09-30T19:24:21;12.50;99.90
46037;DHT22;31769;49.304;8.428;2022-09-30T19:27:23;12.30;99.90
46037;DHT22;31769;49.304;8.428;2022-09-30T19:30:25;12.20;99.90
46037;DHT22;31769;49.304;8.428;2022-09-30T19:33:26;12.20;99.90
46037;DHT22;31769;49.304;8.428;2022-09-30T19:36:26;12.10;99.90
46037;DHT22;31769;49.304;8.428;2022-09-30T19:39:27;12.10;99.90
46037;DHT22;31769;49.304;8.428;2022-09-30T19:42:28;12.00;99.90
46037;DHT22;31769;49.304;8.428;2022-09-30T19:45:29;12.00;99.90
46037;DHT22;31769;49.304;8.428;2022-09-30T19:48:32;11.90;99.90
46037;DHT22;31769;49.304;8.428;2022-09-30T19:51:34;11.80;99.90
46037;DHT22;31769;49.304;8.428;2022-09-30T19:54:35;11.80;99.90
46037;DHT22;31769;49.304;8.428;2022-09-30T19:57:37;11.90;99.90
46037;DHT22;31769;49.304;8.428;2022-09-30T20:00:38;11.90;99.90
46037;DHT22;31769;49.304;8.428;2022-09-30T20:03:39;11.90;99.90
46037;DHT22;31769;49.304;8.428;2022-09-30T20:06:40;11.90;99.90
46037;DHT22;31769;49.304;8.428;2022-09-30T20:09:42;11.90;99.90
46037;DHT22;31769;49.304;8.428;2022-09-30T20:12:42;11.80;99.90
46037;DHT22;31769;49.304;8.428;2022-09-30T20:15:43;11.90;99.90
46037;DHT22;31769;49.304;8.428;2022-09-30T20:18:50;11.90;99.90
46037;DHT22;31769;49.304;8.428;2022-09-30T20:21:51;11.90;99.90
46037;DHT22;31769;49.304;8.428;2022-09-30T20:24:55;11.80;99.90
46037;DHT22;31769;49.304;8.428;2022-09-30T20:27:56;11.70;99.90
46037;DHT22;31769;49.304;8.428;2022-09-30T20:30:56;11.70;99.90
46037;DHT22;31769;49.304;8.428;2022-09-30T20:33:58;11.70;99.90
46037;DHT22;31769;49.304;8.428;2022-09-30T20:36:59;11.60;99.90
46037;DHT22;31769;49.304;8.428;2022-09-30T20:40:00;11.50;99.90
46037;DHT22;31769;49.304;8.428;2022-09-30T20:43:01;11.50;99.90
46037;DHT22;31769;49.304;8.428;2022-09-30T20:46:04;11.40;99.90
46037;DHT22;31769;49.304;8.428;2022-09-30T20:49:07;11.30;99.90
46037;DHT22;31769;49.304;8.428;2022-09-30T20:52:08;11.30;99.90
46037;DHT22;31769;49.304;8.428;2022-09-30T20:55:09;11.20;99.90
46037;DHT22;31769;49.304;8.428;2022-09-30T20:58:11;11.00;99.90
46037;DHT22;31769;49.304;8.428;2022-09-30T21:01:13;10.90;99.90
46037;DHT22;31769;49.304;8.428;2022-09-30T21:04:14;11.00;99.90
46037;DHT22;31769;49.304;8.428;2022-09-30T21:07:15;11.00;99.90
46037;DHT22;31769;49.304;8.428;2022-09-30T21:10:16;11.00;99.90
46037;DHT22;31769;49.304;8.428;2022-09-30T21:13:19;10.90;99.90
46037;DHT22;31769;49.304;8.428;2022-09-30T21:16:22;10.90;99.90
46037;DHT22;31769;49.304;8.428;2022-09-30T21:19:24;10.80;99.90
46037;DHT22;31769;49.304;8.428;2022-09-30T21:22:24;10.90;99.90
46037;DHT22;31769;49.304;8.428;2022-09-30T21:25:25;10.90;99.90
46037;DHT22;31769;49.304;8.428;2022-09-30T21:28:26;10.90;99.90
46037;DHT22;31769;49.304;8.428;2022-09-30T21:31:27;10.90;99.90
46037;DHT22;31769;49.304;8.428;2022-09-30T21:34:28;10.80;99.90
46037;DHT22;31769;49.304;8.428;2022-09-30T21:37:28;10.80;99.90
46037;DHT22;31769;49.304;8.428;2022-09-30T21:40:29;10.80;99.90
46037;DHT22;31769;49.304;8.428;2022-09-30T21:43:32;10.70;99.90
46037;DHT22;31769;49.304;8.428;2022-09-30T21:46:34;10.70;99.90
46037;DHT22;31769;49.304;8.428;2022-09-30T21:49:35;10.60;99.90
46037;DHT22;31769;49.304;8.428;2022-09-30T21:52:37;10.50;99.90
46037;DHT22;31769;49.304;8.428;2022-09-30T21:55:38;10.60;99.90
46037;DHT22;31769;49.304;8.428;2022-09-30T21:58:39;10.50;99.90
46037;DHT22;31769;49.304;8.428;2022-09-30T22:01:40;10.50;99.90
46037;DHT22;31769;49.304;8.428;2022-09-30T22:04:40;10.50;99.90